Time,TemperatureF,DewpointF,PressureIn,WindDirection,WindDirectionDegrees,WindSpeedMPH,WindSpeedGustMPH,Humidity,HourlyPrecipIn,Conditions,Clouds,dailyrainin,SoftwareType,DateUTC
2013-05-15 00:02:00,57.0,47.0,-100.00,ENE,67,13.0,21.0,68,0.00,,,0.23,,2013-05-15 05:02:00,
2013-05-15 00:12:00,57.0,47.0,-100.00,ENE,67,13.0,21.0,68,0.00,,,0.23,,2013-05-15 05:12:00,
2013-05-15 00:42:00,56.0,43.0,-100.00,NE,50,10.0,25.0,62,0.00,,,0.23,,2013-05-15 05:42:00,
2013-05-15 00:52:00,56.0,43.0,-100.00,NE,50,10.0,25.0,62,0.00,,,0.23,,2013-05-15 05:52:00,
2013-05-15 01:02:00,56.0,43.0,-100.00,NE,50,10.0,25.0,62,0.00,,,0.23,,2013-05-15 06:02:00,
2013-05-15 01:11:00,56.0,43.0,-100.00,NE,50,10.0,25.0,62,0.00,,,0.23,,2013-05-15 06:11:00,
2013-05-15 01:42:00,52.0,42.0,-100.00,ENE,72,5.0,16.0,68,0.00,,,0.23,,2013-05-15 06:42:00,
2013-05-15 01:52:00,52.0,42.0,-100.00,ENE,72,5.0,16.0,68,0.00,,,0.23,,2013-05-15 06:52:00,
2013-05-15 02:01:00,52.0,42.0,-100.00,ENE,72,5.0,16.0,68,0.00,,,0.23,,2013-05-15 07:01:00,
2013-05-15 02:11:00,52.0,42.0,-100.00,ENE,72,5.0,16.0,68,0.00,,,0.23,,2013-05-15 07:11:00,
2013-05-15 02:32:00,46.0,41.0,-100.00,ESE,102,4.0,5.0,81,0.00,,,0.23,,2013-05-15 07:32:00,
2013-05-15 03:02:00,46.0,41.0,-100.00,ESE,102,4.0,5.0,81,0.00,,,0.23,,2013-05-15 08:02:00,
2013-05-15 03:12:00,46.0,41.0,-100.00,ESE,102,4.0,5.0,81,0.00,,,0.23,,2013-05-15 08:12:00,
2013-05-15 03:42:00,44.0,41.0,-100.00,SSE,154,1.0,4.0,89,0.00,,,0.23,,2013-05-15 08:42:00,
2013-05-15 03:53:00,44.0,41.0,-100.00,SSE,154,1.0,4.0,89,0.00,,,0.23,,2013-05-15 08:53:00,
2013-05-15 04:01:00,44.0,41.0,-100.00,SSE,154,1.0,4.0,89,0.00,,,0.23,,2013-05-15 09:01:00,
2013-05-15 04:11:00,44.0,41.0,-100.00,SSE,154,1.0,4.0,89,0.00,,,0.23,,2013-05-15 09:11:00,
2013-05-15 04:42:00,44.0,43.0,-100.00,SE,126,0.0,3.0,96,0.00,,,-99.99,,2013-05-15 09:42:00,
2013-05-15 04:53:00,44.0,43.0,-100.00,SE,126,0.0,3.0,96,0.00,,,-99.99,,2013-05-15 09:53:00,
2013-05-15 05:02:00,44.0,43.0,-100.00,SE,126,0.0,3.0,96,0.00,,,-99.99,,2013-05-15 10:02:00,
2013-05-15 05:12:00,44.0,43.0,-100.00,SE,126,0.0,3.0,96,0.00,,,-99.99,,2013-05-15 10:12:00,
2013-05-15 05:15:00,43.0,42.0,-100.00,South,186,2.0,3.0,98,0.00,,,0.23,,2013-05-15 10:15:00,
2013-05-15 05:32:00,43.0,42.0,-100.00,South,186,2.0,3.0,98,0.00,,,0.23,,2013-05-15 10:32:00,
2013-05-15 05:43:00,43.0,42.0,-100.00,South,186,2.0,3.0,98,0.00,,,0.23,,2013-05-15 10:43:00,
2013-05-15 05:52:00,43.0,42.0,-100.00,South,186,2.0,3.0,98,0.00,,,0.23,,2013-05-15 10:52:00,
2013-05-15 06:09:00,43.0,42.0,-100.00,South,186,2.0,3.0,98,0.00,,,0.23,,2013-05-15 11:09:00,
2013-05-15 06:50:00,42.0,41.0,-100.00,East,88,0.0,4.0,98,0.00,,,-99.99,,2013-05-15 11:50:00,
2013-05-15 07:15:00,52.0,47.0,-100.00,SE,133,4.0,6.0,82,0.00,,,0.23,,2013-05-15 12:15:00,
2013-05-15 07:49:00,52.0,47.0,-100.00,SE,133,4.0,6.0,82,0.00,,,0.23,,2013-05-15 12:49:00,
2013-05-15 07:57:00,52.0,47.0,-100.00,SE,133,4.0,6.0,82,0.00,,,0.23,,2013-05-15 12:57:00,
2013-05-15 08:09:00,52.0,47.0,-100.00,SE,133,4.0,6.0,82,0.00,,,0.23,,2013-05-15 13:09:00,
2013-05-15 08:48:00,60.0,45.0,-100.00,SE,126,5.0,10.0,57,0.00,,,0.22,,2013-05-15 13:48:00,
2013-05-15 09:05:00,60.0,45.0,-100.00,SE,126,5.0,10.0,57,0.00,,,0.22,,2013-05-15 14:05:00,
2013-05-15 09:14:00,60.0,45.0,-100.00,SE,126,5.0,10.0,57,0.00,,,0.22,,2013-05-15 14:14:00,
2013-05-15 09:15:00,65.0,43.0,-100.00,SE,138,5.0,12.0,44,0.00,,,0.17,,2013-05-15 14:15:00,
2013-05-15 09:51:00,65.0,43.0,-100.00,SE,138,5.0,12.0,44,0.00,,,0.17,,2013-05-15 14:51:00,
2013-05-15 09:59:00,65.0,43.0,-100.00,SE,138,5.0,12.0,44,0.00,,,0.17,,2013-05-15 14:59:00,
2013-05-15 10:08:00,65.0,43.0,-100.00,SE,138,5.0,12.0,44,0.00,,,0.17,,2013-05-15 15:08:00,
2013-05-15 10:15:00,69.0,43.0,-100.00,ESE,118,6.0,16.0,39,0.00,,,0.13,,2013-05-15 15:15:00,
2013-05-15 10:49:00,69.0,43.0,-100.00,ESE,118,6.0,16.0,39,0.00,,,0.13,,2013-05-15 15:49:00,
2013-05-15 11:01:00,69.0,43.0,-100.00,ESE,118,6.0,16.0,39,0.00,,,0.13,,2013-05-15 16:01:00,
2013-05-15 11:09:00,69.0,43.0,-100.00,ESE,118,6.0,16.0,39,0.00,,,0.13,,2013-05-15 16:09:00,
2013-05-15 11:51:00,73.0,44.0,-100.00,ESE,119,8.0,19.0,35,0.00,,,0.06,,2013-05-15 16:51:00,
2013-05-15 11:59:00,73.0,44.0,-100.00,ESE,119,8.0,19.0,35,0.00,,,0.06,,2013-05-15 16:59:00,
2013-05-15 12:09:00,73.0,44.0,-100.00,ESE,119,8.0,19.0,35,0.00,,,0.06,,2013-05-15 17:09:00,
2013-05-15 12:15:00,75.0,37.0,-100.00,NE,48,14.0,21.0,25,0.00,,,0.00,,2013-05-15 17:15:00,
2013-05-15 12:49:00,75.0,37.0,-100.00,NE,48,14.0,21.0,25,0.00,,,0.00,,2013-05-15 17:49:00,
2013-05-15 12:59:00,75.0,37.0,-100.00,NE,48,14.0,21.0,25,0.00,,,0.00,,2013-05-15 17:59:00,
2013-05-15 13:15:00,77.0,34.0,-100.00,East,82,14.0,22.0,21,0.00,,,0.00,,2013-05-15 18:15:00,
2013-05-15 13:49:00,77.0,34.0,-100.00,East,82,14.0,22.0,21,0.00,,,0.00,,2013-05-15 18:49:00,
2013-05-15 13:57:00,77.0,34.0,-100.00,East,82,14.0,22.0,21,0.00,,,0.00,,2013-05-15 18:57:00,
2013-05-15 14:08:00,77.0,34.0,-100.00,East,82,14.0,22.0,21,0.00,,,0.00,,2013-05-15 19:08:00,
2013-05-15 14:49:00,77.0,33.0,-100.00,East,79,12.0,22.0,20,0.00,,,0.00,,2013-05-15 19:49:00,
2013-05-15 15:08:00,77.0,33.0,-100.00,East,79,12.0,22.0,20,0.00,,,0.00,,2013-05-15 20:08:00,
2013-05-15 15:47:00,76.0,34.0,-100.00,ENE,64,10.0,18.0,22,0.00,,,0.00,,2013-05-15 20:47:00,
2013-05-15 16:53:00,73.0,33.0,-100.00,ENE,58,7.0,16.0,23,0.00,,,-99.99,,2013-05-15 21:53:00,
2013-05-15 17:00:00,73.0,33.0,-100.00,ENE,58,7.0,16.0,23,0.00,,,-99.99,,2013-05-15 22:00:00,
2013-05-15 17:09:00,73.0,33.0,-100.00,ENE,58,7.0,16.0,23,0.00,,,-99.99,,2013-05-15 22:09:00,
2013-05-15 17:15:00,74.0,34.0,-100.00,NE,48,9.0,17.0,23,0.00,,,0.00,,2013-05-15 22:15:00,
2013-05-15 17:42:00,74.0,34.0,-100.00,NE,48,9.0,17.0,23,0.00,,,0.00,,2013-05-15 22:42:00,
2013-05-15 17:52:00,74.0,34.0,-100.00,NE,48,9.0,17.0,23,0.00,,,0.00,,2013-05-15 22:52:00,
2013-05-15 17:59:00,74.0,34.0,-100.00,NE,48,9.0,17.0,23,0.00,,,0.00,,2013-05-15 22:59:00,
2013-05-15 18:07:00,74.0,34.0,-100.00,NE,48,9.0,17.0,23,0.00,,,0.00,,2013-05-15 23:07:00,
2013-05-15 18:15:00,72.0,39.0,-100.00,North,11,9.0,16.0,30,0.00,,,0.00,,2013-05-15 23:15:00,
2013-05-15 18:50:00,72.0,39.0,-100.00,North,11,9.0,16.0,30,0.00,,,0.00,,2013-05-15 23:50:00,
2013-05-15 19:00:00,72.0,39.0,-100.00,North,11,9.0,16.0,30,0.00,,,0.00,,2013-05-16 00:00:00,
2013-05-15 19:15:00,74.0,38.0,-100.00,NNE,14,6.0,16.0,27,0.00,,,0.00,,2013-05-16 00:15:00,
2013-05-15 19:51:00,74.0,38.0,-100.00,NNE,14,6.0,16.0,27,0.00,,,0.00,,2013-05-16 00:51:00,
2013-05-15 19:58:00,74.0,38.0,-100.00,NNE,14,6.0,16.0,27,0.00,,,0.00,,2013-05-16 00:58:00,
2013-05-15 20:06:00,74.0,38.0,-100.00,NNE,14,6.0,16.0,27,0.00,,,0.00,,2013-05-16 01:06:00,
2013-05-15 20:15:00,72.0,38.0,-100.00,SW,224,0.0,11.0,29,0.00,,,0.00,,2013-05-16 01:15:00,
2013-05-15 20:49:00,72.0,38.0,-100.00,SW,224,0.0,11.0,29,0.00,,,0.00,,2013-05-16 01:49:00,
2013-05-15 21:00:00,72.0,38.0,-100.00,SW,224,0.0,11.0,29,0.00,,,0.00,,2013-05-16 02:00:00,
2013-05-15 21:07:00,72.0,38.0,-100.00,SW,224,0.0,11.0,29,0.00,,,0.00,,2013-05-16 02:07:00,
2013-05-15 22:07:00,59.0,44.0,-100.00,East,95,2.0,4.0,58,0.00,,,0.00,,2013-05-16 03:07:00,
2013-05-15 22:47:00,52.0,40.0,-100.00,ENE,67,0.0,3.0,64,0.00,,,0.00,,2013-05-16 03:47:00,
2013-05-15 22:56:00,52.0,40.0,-100.00,ENE,67,0.0,3.0,64,0.00,,,0.00,,2013-05-16 03:56:00,
2013-05-15 23:02:00,52.0,40.0,-100.00,ENE,67,0.0,3.0,64,0.00,,,0.00,,2013-05-16 04:02:00,
2013-05-15 23:12:00,52.0,40.0,-100.00,ENE,67,0.0,3.0,64,0.00,,,0.00,,2013-05-16 04:12:00,
2013-05-15 23:42:00,46.0,42.0,-100.00,ENE,73,0.0,2.0,86,0.00,,,0.00,,2013-05-16 04:42:00,
2013-05-15 23:53:00,46.0,42.0,-100.00,ENE,73,0.0,2.0,86,0.00,,,0.00,,2013-05-16 04:53:00,